Elm Grove, Louisiana
Current Conditions -  °F | °C
As of 9:58 PM on Saturday 24 Jan 2015 (Local Time) from KBAD Reporting Station
Clear Clear  
Wind Chill:   Ceiling: Unl
Heat Index:   Visibility: 10mi
Dew Point:   Wind: 6mph
Humidity: 75%   Direction: 210°SSW
Pressure: 30.02"   Gusts: NA
Location:  32.35°N, 93.55°W
Report Text: KBAD 250358Z AUTO 21005KT 10SM CLR 04/00 A3002 RMK AO2 SLP169 T00420002
Loading
Personal Weather Stations






























Interactive Weather Map New forecast layout! Learn more

10-Day Weather Forecast

Advertisements
Track Severe Weather on mobile